sensor_id;sensor_type;location;lat;lon;timestamp;temperature;humidity
4693;DHT22;11710;48.024;16.296;2022-12-24T06:53:44;11.70;99.90
4693;DHT22;11710;48.024;16.296;2022-12-24T06:56:12;11.70;99.90
4693;DHT22;11710;48.024;16.296;2022-12-24T06:58:40;11.70;99.90
4693;DHT22;11710;48.024;16.296;2022-12-24T07:01:09;11.70;99.90
4693;DHT22;11710;48.024;16.296;2022-12-24T07:03:37;11.60;99.90
4693;DHT22;11710;48.024;16.296;2022-12-24T07:06:04;11.60;99.90
4693;DHT22;11710;48.024;16.296;2022-12-24T07:08:32;11.60;99.90
4693;DHT22;11710;48.024;16.296;2022-12-24T07:11:02;11.60;99.90
4693;DHT22;11710;48.024;16.296;2022-12-24T07:13:29;11.60;99.90
4693;DHT22;11710;48.024;16.296;2022-12-24T07:15:59;11.50;99.90
4693;DHT22;11710;48.024;16.296;2022-12-24T07:18:27;11.50;99.90
4693;DHT22;11710;48.024;16.296;2022-12-24T07:20:54;11.50;99.90
4693;DHT22;11710;48.024;16.296;2022-12-24T07:23:25;11.60;99.90
4693;DHT22;11710;48.024;16.296;2022-12-24T07:25:59;11.60;99.90
4693;DHT22;11710;48.024;16.296;2022-12-24T07:28:27;11.60;99.90
4693;DHT22;11710;48.024;16.296;2022-12-24T07:30:54;11.60;99.90
4693;DHT22;11710;48.024;16.296;2022-12-24T07:33:22;11.70;99.90
4693;DHT22;11710;48.024;16.296;2022-12-24T07:35:57;11.70;99.90
4693;DHT22;11710;48.024;16.296;2022-12-24T07:38:25;11.70;99.90
4693;DHT22;11710;48.024;16.296;2022-12-24T07:40:52;11.70;99.90
4693;DHT22;11710;48.024;16.296;2022-12-24T07:43:19;11.70;99.90
4693;DHT22;11710;48.024;16.296;2022-12-24T07:45:48;11.70;99.90
4693;DHT22;11710;48.024;16.296;2022-12-24T07:48:15;11.80;99.90
4693;DHT22;11710;48.024;16.296;2022-12-24T07:50:42;11.90;99.90
4693;DHT22;11710;48.024;16.296;2022-12-24T07:53:09;12.00;99.90
4693;DHT22;11710;48.024;16.296;2022-12-24T07:55:36;12.10;99.90
4693;DHT22;11710;48.024;16.296;2022-12-24T07:58:03;12.10;99.90
4693;DHT22;11710;48.024;16.296;2022-12-24T08:00:30;12.10;99.90
4693;DHT22;11710;48.024;16.296;2022-12-24T08:02:59;12.20;99.90
4693;DHT22;11710;48.024;16.296;2022-12-24T08:05:26;12.30;99.90
4693;DHT22;11710;48.024;16.296;2022-12-24T08:07:53;12.50;99.90
4693;DHT22;11710;48.024;16.296;2022-12-24T08:10:21;12.60;99.90
4693;DHT22;11710;48.024;16.296;2022-12-24T08:12:48;12.90;99.90
4693;DHT22;11710;48.024;16.296;2022-12-24T08:15:15;13.10;99.90
4693;DHT22;11710;48.024;16.296;2022-12-24T08:17:43;13.10;99.90
4693;DHT22;11710;48.024;16.296;2022-12-24T08:20:12;13.00;99.90
4693;DHT22;11710;48.024;16.296;2022-12-24T08:22:40;12.80;99.90
4693;DHT22;11710;48.024;16.296;2022-12-24T08:25:08;12.70;99.90
4693;DHT22;11710;48.024;16.296;2022-12-24T08:27:36;12.60;99.90
4693;DHT22;11710;48.024;16.296;2022-12-24T08:30:05;12.60;99.90
4693;DHT22;11710;48.024;16.296;2022-12-24T08:32:32;12.60;99.90
4693;DHT22;11710;48.024;16.296;2022-12-24T08:35:00;13.30;99.90
4693;DHT22;11710;48.024;16.296;2022-12-24T08:37:28;14.30;99.90
4693;DHT22;11710;48.024;16.296;2022-12-24T08:39:55;15.60;99.90
4693;DHT22;11710;48.024;16.296;2022-12-24T08:42:22;17.00;99.90
4693;DHT22;11710;48.024;16.296;2022-12-24T08:44:50;17.40;99.90
4693;DHT22;11710;48.024;16.296;2022-12-24T08:47:17;17.20;99.90
4693;DHT22;11710;48.024;16.296;2022-12-24T08:49:44;17.60;99.90
4693;DHT22;11710;48.024;16.296;2022-12-24T08:52:11;17.00;99.90
4693;DHT22;11710;48.024;16.296;2022-12-24T08:54:39;16.40;99.90
4693;DHT22;11710;48.024;16.296;2022-12-24T08:57:06;15.80;99.90
4693;DHT22;11710;48.024;16.296;2022-12-24T08:59:33;15.30;99.90
4693;DHT22;11710;48.024;16.296;2022-12-24T09:02:00;15.00;99.90
4693;DHT22;11710;48.024;16.296;2022-12-24T09:04:27;14.60;99.90
4693;DHT22;11710;48.024;16.296;2022-12-24T09:06:55;14.20;99.90
4693;DHT22;11710;48.024;16.296;2022-12-24T09:09:22;14.00;99.90
4693;DHT22;11710;48.024;16.296;2022-12-24T09:11:50;13.70;99.90
4693;DHT22;11710;48.024;16.296;2022-12-24T09:14:17;13.60;99.90
4693;DHT22;11710;48.024;16.296;2022-12-24T09:16:44;13.60;99.90
4693;DHT22;11710;48.024;16.296;2022-12-24T09:19:12;13.50;99.90
4693;DHT22;11710;48.024;16.296;2022-12-24T09:21:39;13.40;99.90
4693;DHT22;11710;48.024;16.296;2022-12-24T09:24:06;13.80;99.90
4693;DHT22;11710;48.024;16.296;2022-12-24T09:26:33;15.40;99.90
4693;DHT22;11710;48.024;16.296;2022-12-24T09:29:02;17.30;99.90
4693;DHT22;11710;48.024;16.296;2022-12-24T09:31:29;19.40;99.90
4693;DHT22;11710;48.024;16.296;2022-12-24T09:33:56;20.40;99.90
4693;DHT22;11710;48.024;16.296;2022-12-24T09:36:23;21.70;99.90
4693;DHT22;11710;48.024;16.296;2022-12-24T09:38:51;22.80;98.00
4693;DHT22;11710;48.024;16.296;2022-12-24T09:41:30;23.50;96.20
4693;DHT22;11710;48.024;16.296;2022-12-24T09:44:02;23.30;95.00
4693;DHT22;11710;48.024;16.296;2022-12-24T09:46:35;22.70;95.00
4693;DHT22;11710;48.024;16.296;2022-12-24T09:49:10;23.40;94.20
4693;DHT22;11710;48.024;16.296;2022-12-24T09:51:44;23.30;93.40
4693;DHT22;11710;48.024;16.296;2022-12-24T09:54:16;23.00;93.20
4693;DHT22;11710;48.024;16.296;2022-12-24T09:56:45;22.60;93.30
4693;DHT22;11710;48.024;16.296;2022-12-24T09:59:16;22.30;92.90
4693;DHT22;11710;48.024;16.296;2022-12-24T10:01:44;21.40;93.60
4693;DHT22;11710;48.024;16.296;2022-12-24T10:04:13;21.40;93.80
4693;DHT22;11710;48.024;16.296;2022-12-24T10:06:48;22.10;93.50
4693;DHT22;11710;48.024;16.296;2022-12-24T10:09:23;22.70;92.80
4693;DHT22;11710;48.024;16.296;2022-12-24T10:11:55;23.40;91.90
4693;DHT22;11710;48.024;16.296;2022-12-24T10:14:37;23.80;91.30
4693;DHT22;11710;48.024;16.296;2022-12-24T10:17:23;23.10;91.10
4693;DHT22;11710;48.024;16.296;2022-12-24T10:20:01;23.40;91.00
4693;DHT22;11710;48.024;16.296;2022-12-24T10:22:35;24.30;90.60
4693;DHT22;11710;48.024;16.296;2022-12-24T10:25:12;24.20;90.00
4693;DHT22;11710;48.024;16.296;2022-12-24T10:27:40;22.60;89.80
4693;DHT22;11710;48.024;16.296;2022-12-24T10:30:15;21.50;90.40
4693;DHT22;11710;48.024;16.296;2022-12-24T10:32:44;20.50;91.20
4693;DHT22;11710;48.024;16.296;2022-12-24T10:35:19;20.00;91.70
4693;DHT22;11710;48.024;16.296;2022-12-24T10:37:48;20.50;92.10
4693;DHT22;11710;48.024;16.296;2022-12-24T10:40:26;21.30;91.90
4693;DHT22;11710;48.024;16.296;2022-12-24T10:42:55;21.40;91.00
4693;DHT22;11710;48.024;16.296;2022-12-24T10:45:26;21.40;91.00
4693;DHT22;11710;48.024;16.296;2022-12-24T10:48:02;21.60;90.80
4693;DHT22;11710;48.024;16.296;2022-12-24T10:50:33;21.40;91.00
4693;DHT22;11710;48.024;16.296;2022-12-24T10:53:06;21.30;91.00
4693;DHT22;11710;48.024;16.296;2022-12-24T10:55:38;20.90;91.00
4693;DHT22;11710;48.024;16.296;2022-12-24T10:58:12;19.80;91.60
4693;DHT22;11710;48.024;16.296;2022-12-24T11:00:49;18.90;92.40
4693;DHT22;11710;48.024;16.296;2022-12-24T11:03:24;18.20;93.00
4693;DHT22;11710;48.024;16.296;2022-12-24T11:06:07;17.70;93.90
4693;DHT22;11710;48.024;16.296;2022-12-24T11:08:36;17.40;94.50
4693;DHT22;11710;48.024;16.296;2022-12-24T11:11:06;17.20;95.00
4693;DHT22;11710;48.024;16.296;2022-12-24T11:13:36;17.10;95.20
4693;DHT22;11710;48.024;16.296;2022-12-24T11:16:09;17.00;95.40
4693;DHT22;11710;48.024;16.296;2022-12-24T11:18:46;16.80;95.50
4693;DHT22;11710;48.024;16.296;2022-12-24T11:21:19;16.50;96.20
4693;DHT22;11710;48.024;16.296;2022-12-24T11:23:50;16.00;96.10
4693;DHT22;11710;48.024;16.296;2022-12-24T11:26:21;15.60;96.90
4693;DHT22;11710;48.024;16.296;2022-12-24T11:29:03;15.30;97.40
4693;DHT22;11710;48.024;16.296;2022-12-24T11:31:33;15.00;97.80
4693;DHT22;11710;48.024;16.296;2022-12-24T11:34:18;14.80;98.30
4693;DHT22;11710;48.024;16.296;2022-12-24T11:36:48;14.50;98.50
4693;DHT22;11710;48.024;16.296;2022-12-24T11:39:19;14.30;99.00
4693;DHT22;11710;48.024;16.296;2022-12-24T11:41:47;14.20;99.10
4693;DHT22;11710;48.024;16.296;2022-12-24T11:44:25;13.90;99.70
4693;DHT22;11710;48.024;16.296;2022-12-24T11:46:55;13.80;99.90
4693;DHT22;11710;48.024;16.296;2022-12-24T11:49:24;13.80;99.90
4693;DHT22;11710;48.024;16.296;2022-12-24T11:52:20;13.90;99.90
4693;DHT22;11710;48.024;16.296;2022-12-24T11:57:51;13.90;99.90
4693;DHT22;11710;48.024;16.296;2022-12-24T12:00:20;13.80;99.90
4693;DHT22;11710;48.024;16.296;2022-12-24T12:02:50;14.00;99.90
4693;DHT22;11710;48.024;16.296;2022-12-24T12:05:22;14.10;99.90
4693;DHT22;11710;48.024;16.296;2022-12-24T12:07:53;14.10;99.90
4693;DHT22;11710;48.024;16.296;2022-12-24T12:10:24;14.30;99.90
4693;DHT22;11710;48.024;16.296;2022-12-24T12:12:58;14.50;99.90
4693;DHT22;11710;48.024;16.296;2022-12-24T12:15:28;14.50;99.90
4693;DHT22;11710;48.024;16.296;2022-12-24T12:18:07;14.40;99.90
4693;DHT22;11710;48.024;16.296;2022-12-24T12:20:39;14.40;99.90
4693;DHT22;11710;48.024;16.296;2022-12-24T12:23:13;14.30;99.90
4693;DHT22;11710;48.024;16.296;2022-12-24T12:25:46;14.40;99.90
4693;DHT22;11710;48.024;16.296;2022-12-24T12:28:20;14.50;99.90
4693;DHT22;11710;48.024;16.296;2022-12-24T12:30:58;14.40;99.90
4693;DHT22;11710;48.024;16.296;2022-12-24T12:33:32;14.50;99.90
4693;DHT22;11710;48.024;16.296;2022-12-24T12:36:02;14.40;99.90
4693;DHT22;11710;48.024;16.296;2022-12-24T12:38:29;14.40;99.90
4693;DHT22;11710;48.024;16.296;2022-12-24T12:41:05;14.60;99.90
4693;DHT22;11710;48.024;16.296;2022-12-24T12:43:49;14.60;99.90
4693;DHT22;11710;48.024;16.296;2022-12-24T12:46:26;14.70;99.70
4693;DHT22;11710;48.024;16.296;2022-12-24T12:49:08;14.90;99.60
4693;DHT22;11710;48.024;16.296;2022-12-24T12:51:48;15.00;99.60
4693;DHT22;11710;48.024;16.296;2022-12-24T12:54:29;15.10;99.30
4693;DHT22;11710;48.024;16.296;2022-12-24T12:57:04;14.80;99.30
4693;DHT22;11710;48.024;16.296;2022-12-24T12:59:36;14.80;99.50
4693;DHT22;11710;48.024;16.296;2022-12-24T13:02:21;14.80;99.60
4693;DHT22;11710;48.024;16.296;2022-12-24T13:05:30;14.70;99.70
4693;DHT22;11710;48.024;16.296;2022-12-24T13:08:20;14.50;99.90
4693;DHT22;11710;48.024;16.296;2022-12-24T13:11:26;14.30;99.90
4693;DHT22;11710;48.024;16.296;2022-12-24T13:14:22;14.40;99.90
4693;DHT22;11710;48.024;16.296;2022-12-24T13:20:09;14.50;99.90
4693;DHT22;11710;48.024;16.296;2022-12-24T13:22:48;14.60;99.90
4693;DHT22;11710;48.024;16.296;2022-12-24T13:25:21;14.70;99.90
4693;DHT22;11710;48.024;16.296;2022-12-24T13:27:51;14.80;99.90
4693;DHT22;11710;48.024;16.296;2022-12-24T13:30:34;14.90;99.90
4693;DHT22;11710;48.024;16.296;2022-12-24T13:33:02;14.90;99.90
4693;DHT22;11710;48.024;16.296;2022-12-24T13:35:37;14.90;99.90
4693;DHT22;11710;48.024;16.296;2022-12-24T13:44:25;14.60;99.90
4693;DHT22;11710;48.024;16.296;2022-12-24T13:47:17;14.40;99.90
4693;DHT22;11710;48.024;16.296;2022-12-24T13:49:49;14.40;99.90
4693;DHT22;11710;48.024;16.296;2022-12-24T13:52:30;14.20;99.90
4693;DHT22;11710;48.024;16.296;2022-12-24T13:55:15;14.20;99.90
4693;DHT22;11710;48.024;16.296;2022-12-24T13:57:51;14.00;99.90
4693;DHT22;11710;48.024;16.296;2022-12-24T14:00:32;14.00;99.90
4693;DHT22;11710;48.024;16.296;2022-12-24T14:03:04;14.00;99.90
4693;DHT22;11710;48.024;16.296;2022-12-24T14:05:33;13.90;99.90
4693;DHT22;11710;48.024;16.296;2022-12-24T14:08:05;13.70;99.90
4693;DHT22;11710;48.024;16.296;2022-12-24T14:10:38;13.70;99.90
4693;DHT22;11710;48.024;16.296;2022-12-24T14:13:08;13.60;99.90
4693;DHT22;11710;48.024;16.296;2022-12-24T14:16:02;13.40;99.90
4693;DHT22;11710;48.024;16.296;2022-12-24T14:18:32;13.30;99.90
4693;DHT22;11710;48.024;16.296;2022-12-24T14:21:01;13.20;99.90
4693;DHT22;11710;48.024;16.296;2022-12-24T14:23:51;13.10;99.90
4693;DHT22;11710;48.024;16.296;2022-12-24T14:26:22;13.00;99.90
4693;DHT22;11710;48.024;16.296;2022-12-24T14:28:54;12.90;99.90
4693;DHT22;11710;48.024;16.296;2022-12-24T14:31:21;12.80;99.90
4693;DHT22;11710;48.024;16.296;2022-12-24T14:33:48;12.70;99.90
4693;DHT22;11710;48.024;16.296;2022-12-24T14:36:21;12.60;99.90
4693;DHT22;11710;48.024;16.296;2022-12-24T14:38:50;12.50;99.90
4693;DHT22;11710;48.024;16.296;2022-12-24T14:41:24;12.40;99.90
4693;DHT22;11710;48.024;16.296;2022-12-24T14:43:59;12.30;99.90
4693;DHT22;11710;48.024;16.296;2022-12-24T14:46:33;12.20;99.90
4693;DHT22;11710;48.024;16.296;2022-12-24T14:49:06;12.10;99.90
4693;DHT22;11710;48.024;16.296;2022-12-24T14:51:42;12.10;99.90
4693;DHT22;11710;48.024;16.296;2022-12-24T14:54:31;12.00;99.90
4693;DHT22;11710;48.024;16.296;2022-12-24T14:57:20;12.00;99.90
4693;DHT22;11710;48.024;16.296;2022-12-24T14:59:51;11.90;99.90
4693;DHT22;11710;48.024;16.296;2022-12-24T15:02:41;11.90;99.90
4693;DHT22;11710;48.024;16.296;2022-12-24T15:05:14;11.80;99.90
4693;DHT22;11710;48.024;16.296;2022-12-24T15:07:47;11.80;99.90
4693;DHT22;11710;48.024;16.296;2022-12-24T15:10:27;11.80;99.90
4693;DHT22;11710;48.024;16.296;2022-12-24T15:12:57;11.80;99.90
4693;DHT22;11710;48.024;16.296;2022-12-24T15:15:27;11.70;99.90
4693;DHT22;11710;48.024;16.296;2022-12-24T15:17:55;11.70;99.90
4693;DHT22;11710;48.024;16.296;2022-12-24T15:20:25;11.70;99.90
4693;DHT22;11710;48.024;16.296;2022-12-24T15:22:55;11.70;99.90
4693;DHT22;11710;48.024;16.296;2022-12-24T15:25:26;11.70;99.90
4693;DHT22;11710;48.024;16.296;2022-12-24T15:27:54;11.70;99.90
4693;DHT22;11710;48.024;16.296;2022-12-24T15:30:24;11.70;99.90
4693;DHT22;11710;48.024;16.296;2022-12-24T15:32:53;11.70;99.90
4693;DHT22;11710;48.024;16.296;2022-12-24T15:35:44;11.70;99.90
4693;DHT22;11710;48.024;16.296;2022-12-24T15:38:25;11.70;99.90
4693;DHT22;11710;48.024;16.296;2022-12-24T15:40:56;11.60;99.90
4693;DHT22;11710;48.024;16.296;2022-12-24T15:43:24;11.60;99.90
4693;DHT22;11710;48.024;16.296;2022-12-24T15:45:52;11.60;99.90
4693;DHT22;11710;48.024;16.296;2022-12-24T15:48:23;11.70;99.90
4693;DHT22;11710;48.024;16.296;2022-12-24T15:50:56;11.70;99.90
4693;DHT22;11710;48.024;16.296;2022-12-24T15:53:28;11.70;99.90
4693;DHT22;11710;48.024;16.296;2022-12-24T15:56:04;11.70;99.90
4693;DHT22;11710;48.024;16.296;2022-12-24T15:58:34;11.70;99.90
4693;DHT22;11710;48.024;16.296;2022-12-24T16:01:05;11.70;99.90
4693;DHT22;11710;48.024;16.296;2022-12-24T16:03:32;11.70;99.90
4693;DHT22;11710;48.024;16.296;2022-12-24T16:06:01;11.70;99.90
4693;DHT22;11710;48.024;16.296;2022-12-24T16:08:33;11.70;99.90
4693;DHT22;11710;48.024;16.296;2022-12-24T16:11:17;11.70;99.90
4693;DHT22;11710;48.024;16.296;2022-12-24T16:14:00;11.70;99.90
4693;DHT22;11710;48.024;16.296;2022-12-24T16:16:35;11.70;99.90
4693;DHT22;11710;48.024;16.296;2022-12-24T16:19:04;11.60;99.90
4693;DHT22;11710;48.024;16.296;2022-12-24T16:21:36;11.60;99.90
4693;DHT22;11710;48.024;16.296;2022-12-24T16:24:09;11.60;99.90
4693;DHT22;11710;48.024;16.296;2022-12-24T16:26:40;11.60;99.90
4693;DHT22;11710;48.024;16.296;2022-12-24T16:29:09;11.60;99.90
4693;DHT22;11710;48.024;16.296;2022-12-24T16:31:43;11.60;99.90
4693;DHT22;11710;48.024;16.296;2022-12-24T16:34:12;11.60;99.90
4693;DHT22;11710;48.024;16.296;2022-12-24T16:36:41;11.60;99.90
4693;DHT22;11710;48.024;16.296;2022-12-24T16:39:10;11.60;99.90
4693;DHT22;11710;48.024;16.296;2022-12-24T16:41:53;11.60;99.90
4693;DHT22;11710;48.024;16.296;2022-12-24T16:44:38;11.60;99.90
4693;DHT22;11710;48.024;16.296;2022-12-24T16:47:08;11.70;99.90
4693;DHT22;11710;48.024;16.296;2022-12-24T16:49:37;11.70;99.90
4693;DHT22;11710;48.024;16.296;2022-12-24T16:52:05;11.60;99.90
4693;DHT22;11710;48.024;16.296;2022-12-24T16:54:33;11.60;99.90
4693;DHT22;11710;48.024;16.296;2022-12-24T16:57:01;11.70;99.90
4693;DHT22;11710;48.024;16.296;2022-12-24T16:59:28;11.70;99.90
4693;DHT22;11710;48.024;16.296;2022-12-24T17:01:57;11.70;99.90
4693;DHT22;11710;48.024;16.296;2022-12-24T17:04:24;11.70;99.90
4693;DHT22;11710;48.024;16.296;2022-12-24T17:06:51;11.70;99.90
4693;DHT22;11710;48.024;16.296;2022-12-24T17:09:18;11.70;99.90
4693;DHT22;11710;48.024;16.296;2022-12-24T17:11:46;11.80;99.90
4693;DHT22;11710;48.024;16.296;2022-12-24T17:14:14;11.80;99.90
4693;DHT22;11710;48.024;16.296;2022-12-24T17:16:41;11.80;99.90
4693;DHT22;11710;48.024;16.296;2022-12-24T17:19:08;11.80;99.90
4693;DHT22;11710;48.024;16.296;2022-12-24T17:21:36;11.80;99.90
4693;DHT22;11710;48.024;16.296;2022-12-24T17:24:03;11.80;99.90
4693;DHT22;11710;48.024;16.296;2022-12-24T17:26:31;11.80;99.90
4693;DHT22;11710;48.024;16.296;2022-12-24T17:28:58;11.80;99.90
4693;DHT22;11710;48.024;16.296;2022-12-24T17:31:28;11.80;99.90
4693;DHT22;11710;48.024;16.296;2022-12-24T17:33:55;11.80;99.90
4693;DHT22;11710;48.024;16.296;2022-12-24T17:36:23;11.80;99.90
4693;DHT22;11710;48.024;16.296;2022-12-24T17:38:50;11.80;99.90
4693;DHT22;11710;48.024;16.296;2022-12-24T17:41:19;11.80;99.90
4693;DHT22;11710;48.024;16.296;2022-12-24T17:43:47;11.80;99.90
4693;DHT22;11710;48.024;16.296;2022-12-24T17:46:16;11.80;99.90
4693;DHT22;11710;48.024;16.296;2022-12-24T17:48:45;11.80;99.90
4693;DHT22;11710;48.024;16.296;2022-12-24T17:51:14;11.80;99.90
4693;DHT22;11710;48.024;16.296;2022-12-24T17:53:42;11.80;99.90
4693;DHT22;11710;48.024;16.296;2022-12-24T17:56:11;11.80;99.90
4693;DHT22;11710;48.024;16.296;2022-12-24T17:58:40;11.70;99.90
4693;DHT22;11710;48.024;16.296;2022-12-24T18:01:10;11.80;99.90
4693;DHT22;11710;48.024;16.296;2022-12-24T18:03:38;11.80;99.90
4693;DHT22;11710;48.024;16.296;2022-12-24T18:06:08;11.80;99.90
4693;DHT22;11710;48.024;16.296;2022-12-24T18:08:37;11.80;99.90
4693;DHT22;11710;48.024;16.296;2022-12-24T18:11:10;11.80;99.90
4693;DHT22;11710;48.024;16.296;2022-12-24T18:13:39;11.80;99.90
4693;DHT22;11710;48.024;16.296;2022-12-24T18:16:13;11.80;99.90
4693;DHT22;11710;48.024;16.296;2022-12-24T18:18:40;11.80;99.90
4693;DHT22;11710;48.024;16.296;2022-12-24T18:21:09;11.80;99.90
4693;DHT22;11710;48.024;16.296;2022-12-24T18:23:39;11.80;99.90
4693;DHT22;11710;48.024;16.296;2022-12-24T18:26:06;11.80;99.90
4693;DHT22;11710;48.024;16.296;2022-12-24T18:28:33;11.80;99.90
4693;DHT22;11710;48.024;16.296;2022-12-24T18:31:02;11.90;99.90
4693;DHT22;11710;48.024;16.296;2022-12-24T18:33:32;11.90;99.90
4693;DHT22;11710;48.024;16.296;2022-12-24T18:36:00;11.80;99.90
4693;DHT22;11710;48.024;16.296;2022-12-24T18:38:28;11.80;99.90
4693;DHT22;11710;48.024;16.296;2022-12-24T18:41:01;11.80;99.90
4693;DHT22;11710;48.024;16.296;2022-12-24T18:43:29;11.90;99.90
4693;DHT22;11710;48.024;16.296;2022-12-24T18:45:56;11.90;99.90
4693;DHT22;11710;48.024;16.296;2022-12-24T18:48:23;11.90;99.90
4693;DHT22;11710;48.024;16.296;2022-12-24T18:50:54;12.00;99.90
4693;DHT22;11710;48.024;16.296;2022-12-24T18:53:21;12.00;99.90
4693;DHT22;11710;48.024;16.296;2022-12-24T18:55:50;11.90;99.90
4693;DHT22;11710;48.024;16.296;2022-12-24T18:58:17;11.90;99.90
4693;DHT22;11710;48.024;16.296;2022-12-24T19:00:45;12.00;99.90
4693;DHT22;11710;48.024;16.296;2022-12-24T19:03:12;12.00;99.90
4693;DHT22;11710;48.024;16.296;2022-12-24T19:05:39;12.00;99.90
4693;DHT22;11710;48.024;16.296;2022-12-24T19:08:06;12.00;99.90
4693;DHT22;11710;48.024;16.296;2022-12-24T19:10:35;12.00;99.90
4693;DHT22;11710;48.024;16.296;2022-12-24T19:13:04;12.10;99.90
4693;DHT22;11710;48.024;16.296;2022-12-24T19:15:31;12.10;99.90
4693;DHT22;11710;48.024;16.296;2022-12-24T19:17:58;12.10;99.90
4693;DHT22;11710;48.024;16.296;2022-12-24T19:20:26;12.10;99.90
4693;DHT22;11710;48.024;16.296;2022-12-24T19:22:53;12.10;99.90
4693;DHT22;11710;48.024;16.296;2022-12-24T19:25:20;12.10;99.90
4693;DHT22;11710;48.024;16.296;2022-12-24T19:27:47;12.10;99.90
4693;DHT22;11710;48.024;16.296;2022-12-24T19:30:16;12.20;99.90
4693;DHT22;11710;48.024;16.296;2022-12-24T19:32:43;12.20;99.90
4693;DHT22;11710;48.024;16.296;2022-12-24T19:35:10;12.20;99.90
4693;DHT22;11710;48.024;16.296;2022-12-24T19:37:37;12.30;99.90
4693;DHT22;11710;48.024;16.296;2022-12-24T19:40:06;12.30;99.90
4693;DHT22;11710;48.024;16.296;2022-12-24T19:42:33;12.30;99.90
4693;DHT22;11710;48.024;16.296;2022-12-24T19:45:00;12.30;99.90
4693;DHT22;11710;48.024;16.296;2022-12-24T19:47:29;12.30;99.90
4693;DHT22;11710;48.024;16.296;2022-12-24T19:49:56;12.30;99.90
4693;DHT22;11710;48.024;16.296;2022-12-24T19:52:23;12.30;99.90
4693;DHT22;11710;48.024;16.296;2022-12-24T19:54:50;12.30;99.90
4693;DHT22;11710;48.024;16.296;2022-12-24T19:57:17;12.30;99.90
4693;DHT22;11710;48.024;16.296;2022-12-24T19:59:44;12.30;99.90
4693;DHT22;11710;48.024;16.296;2022-12-24T20:02:11;12.20;99.90
4693;DHT22;11710;48.024;16.296;2022-12-24T20:04:40;12.10;99.90
4693;DHT22;11710;48.024;16.296;2022-12-24T20:07:07;12.10;99.90
4693;DHT22;11710;48.024;16.296;2022-12-24T20:09:34;12.10;99.90
4693;DHT22;11710;48.024;16.296;2022-12-24T20:12:03;12.00;99.90
4693;DHT22;11710;48.024;16.296;2022-12-24T20:14:30;12.00;99.90
4693;DHT22;11710;48.024;16.296;2022-12-24T20:16:57;12.00;99.90
4693;DHT22;11710;48.024;16.296;2022-12-24T20:19:24;12.00;99.90
4693;DHT22;11710;48.024;16.296;2022-12-24T20:21:52;12.00;99.90
4693;DHT22;11710;48.024;16.296;2022-12-24T20:24:19;11.90;99.90
4693;DHT22;11710;48.024;16.296;2022-12-24T20:26:46;11.90;99.90
4693;DHT22;11710;48.024;16.296;2022-12-24T20:29:14;11.90;99.90
4693;DHT22;11710;48.024;16.296;2022-12-24T20:31:41;11.90;99.90
4693;DHT22;11710;48.024;16.296;2022-12-24T20:34:09;11.90;99.90
4693;DHT22;11710;48.024;16.296;2022-12-24T20:36:37;11.90;99.90
4693;DHT22;11710;48.024;16.296;2022-12-24T20:39:06;11.90;99.90
4693;DHT22;11710;48.024;16.296;2022-12-24T20:41:33;11.80;99.90
4693;DHT22;11710;48.024;16.296;2022-12-24T20:44:00;11.80;99.90
4693;DHT22;11710;48.024;16.296;2022-12-24T20:46:29;11.70;99.90
4693;DHT22;11710;48.024;16.296;2022-12-24T20:48:56;11.70;99.90
4693;DHT22;11710;48.024;16.296;2022-12-24T20:51:26;11.60;99.90
4693;DHT22;11710;48.024;16.296;2022-12-24T20:53:55;11.60;99.90
4693;DHT22;11710;48.024;16.296;2022-12-24T20:56:26;11.60;99.90
4693;DHT22;11710;48.024;16.296;2022-12-24T20:58:53;11.60;99.90
4693;DHT22;11710;48.024;16.296;2022-12-24T21:01:22;11.60;99.90
4693;DHT22;11710;48.024;16.296;2022-12-24T21:03:50;11.60;99.90
4693;DHT22;11710;48.024;16.296;2022-12-24T21:06:18;11.60;99.90
4693;DHT22;11710;48.024;16.296;2022-12-24T21:08:48;11.60;99.90
4693;DHT22;11710;48.024;16.296;2022-12-24T21:11:16;11.60;99.90
4693;DHT22;11710;48.024;16.296;2022-12-24T21:14:07;11.60;99.90
4693;DHT22;11710;48.024;16.296;2022-12-24T21:16:36;11.50;99.90
4693;DHT22;11710;48.024;16.296;2022-12-24T21:19:04;11.50;99.90
4693;DHT22;11710;48.024;16.296;2022-12-24T21:21:32;11.50;99.90
4693;DHT22;11710;48.024;16.296;2022-12-24T21:24:00;11.50;99.90
4693;DHT22;11710;48.024;16.296;2022-12-24T21:26:28;11.40;99.90
4693;DHT22;11710;48.024;16.296;2022-12-24T21:28:56;11.50;99.90
4693;DHT22;11710;48.024;16.296;2022-12-24T21:31:25;11.50;99.90
4693;DHT22;11710;48.024;16.296;2022-12-24T21:33:52;11.50;99.90
4693;DHT22;11710;48.024;16.296;2022-12-24T21:36:19;11.40;99.90
4693;DHT22;11710;48.024;16.296;2022-12-24T21:38:46;11.50;99.90
4693;DHT22;11710;48.024;16.296;2022-12-24T21:41:16;11.50;99.90
4693;DHT22;11710;48.024;16.296;2022-12-24T21:43:44;11.50;99.90
4693;DHT22;11710;48.024;16.296;2022-12-24T21:46:13;11.50;99.90
4693;DHT22;11710;48.024;16.296;2022-12-24T21:48:43;11.50;99.90
4693;DHT22;11710;48.024;16.296;2022-12-24T21:51:28;11.40;99.90
4693;DHT22;11710;48.024;16.296;2022-12-24T21:53:55;11.40;99.90
4693;DHT22;11710;48.024;16.296;2022-12-24T21:56:41;11.40;99.90
4693;DHT22;11710;48.024;16.296;2022-12-24T21:59:25;11.50;99.90
4693;DHT22;11710;48.024;16.296;2022-12-24T22:01:52;11.50;99.90
4693;DHT22;11710;48.024;16.296;2022-12-24T22:04:21;11.50;99.90
4693;DHT22;11710;48.024;16.296;2022-12-24T22:06:48;11.60;99.90
4693;DHT22;11710;48.024;16.296;2022-12-24T22:09:32;11.60;99.90
4693;DHT22;11710;48.024;16.296;2022-12-24T22:12:17;11.60;99.90
